sensor_id;sensor_type;location;lat;lon;timestamp;P1;durP1;ratioP1;P2;durP2;ratioP2
58436;SDS011;44230;43.626;10.580;2023-09-19T07:51:28;9.25;;;5.00;;
58436;SDS011;44230;43.626;10.580;2023-09-19T07:53:54;11.77;;;6.10;;
58436;SDS011;44230;43.626;10.580;2023-09-19T07:56:20;10.95;;;6.22;;
58436;SDS011;44230;43.626;10.580;2023-09-19T07:58:46;8.90;;;4.90;;
58436;SDS011;44230;43.626;10.580;2023-09-19T08:01:11;9.60;;;5.20;;
58436;SDS011;44230;43.626;10.580;2023-09-19T08:03:38;9.27;;;5.73;;
58436;SDS011;44230;43.626;10.580;2023-09-19T08:06:06;8.27;;;5.78;;
58436;SDS011;44230;43.626;10.580;2023-09-19T08:08:33;14.00;;;5.43;;
58436;SDS011;44230;43.626;10.580;2023-09-19T08:11:05;13.02;;;5.88;;
58436;SDS011;44230;43.626;10.580;2023-09-19T08:13:38;9.07;;;5.80;;
58436;SDS011;44230;43.626;10.580;2023-09-19T08:16:08;10.70;;;5.47;;
58436;SDS011;44230;43.626;10.580;2023-09-19T08:18:37;10.68;;;5.38;;
58436;SDS011;44230;43.626;10.580;2023-09-19T08:21:06;8.05;;;5.03;;
58436;SDS011;44230;43.626;10.580;2023-09-19T08:23:39;8.25;;;5.38;;
58436;SDS011;44230;43.626;10.580;2023-09-19T08:26:04;10.95;;;5.45;;
58436;SDS011;44230;43.626;10.580;2023-09-19T08:28:33;10.20;;;5.47;;
58436;SDS011;44230;43.626;10.580;2023-09-19T08:31:03;8.35;;;5.90;;
58436;SDS011;44230;43.626;10.580;2023-09-19T08:33:33;8.00;;;5.03;;
58436;SDS011;44230;43.626;10.580;2023-09-19T08:36:00;8.23;;;4.90;;
58436;SDS011;44230;43.626;10.580;2023-09-19T08:38:30;10.57;;;5.25;;
58436;SDS011;44230;43.626;10.580;2023-09-19T08:41:04;6.60;;;4.88;;
58436;SDS011;44230;43.626;10.580;2023-09-19T08:43:31;7.85;;;5.85;;
58436;SDS011;44230;43.626;10.580;2023-09-19T08:48:31;11.23;;;5.57;;
58436;SDS011;44230;43.626;10.580;2023-09-19T08:51:03;8.98;;;5.35;;
58436;SDS011;44230;43.626;10.580;2023-09-19T08:55:59;8.65;;;4.90;;
58436;SDS011;44230;43.626;10.580;2023-09-19T08:58:31;7.13;;;4.80;;
58436;SDS011;44230;43.626;10.580;2023-09-19T09:01:06;6.47;;;4.72;;
58436;SDS011;44230;43.626;10.580;2023-09-19T09:03:33;7.45;;;4.57;;
58436;SDS011;44230;43.626;10.580;2023-09-19T09:06:01;8.85;;;4.80;;
58436;SDS011;44230;43.626;10.580;2023-09-19T09:08:27;11.73;;;5.50;;
58436;SDS011;44230;43.626;10.580;2023-09-19T09:10:56;7.45;;;4.90;;
58436;SDS011;44230;43.626;10.580;2023-09-19T09:13:22;8.45;;;4.90;;
58436;SDS011;44230;43.626;10.580;2023-09-19T09:15:51;8.75;;;4.63;;
58436;SDS011;44230;43.626;10.580;2023-09-19T09:18:19;7.68;;;4.97;;
58436;SDS011;44230;43.626;10.580;2023-09-19T09:20:45;6.95;;;4.45;;
58436;SDS011;44230;43.626;10.580;2023-09-19T09:23:12;5.63;;;4.40;;
58436;SDS011;44230;43.626;10.580;2023-09-19T09:28:24;6.93;;;4.60;;
58436;SDS011;44230;43.626;10.580;2023-09-19T09:30:53;7.78;;;4.85;;
58436;SDS011;44230;43.626;10.580;2023-09-19T09:33:28;9.80;;;4.97;;
58436;SDS011;44230;43.626;10.580;2023-09-19T09:35:55;6.57;;;4.30;;
58436;SDS011;44230;43.626;10.580;2023-09-19T09:38:27;7.63;;;4.53;;
58436;SDS011;44230;43.626;10.580;2023-09-19T09:40:54;8.75;;;4.30;;
58436;SDS011;44230;43.626;10.580;2023-09-19T09:43:32;7.63;;;4.72;;
58436;SDS011;44230;43.626;10.580;2023-09-19T09:48:48;8.15;;;4.70;;
58436;SDS011;44230;43.626;10.580;2023-09-19T09:51:46;6.15;;;3.63;;
58436;SDS011;44230;43.626;10.580;2023-09-19T09:54:34;7.13;;;4.53;;
58436;SDS011;44230;43.626;10.580;2023-09-19T09:57:09;5.45;;;4.28;;
58436;SDS011;44230;43.626;10.580;2023-09-19T09:59:50;5.50;;;4.28;;
58436;SDS011;44230;43.626;10.580;2023-09-19T10:02:27;6.75;;;4.07;;
58436;SDS011;44230;43.626;10.580;2023-09-19T10:08:11;8.00;;;4.22;;
58436;SDS011;44230;43.626;10.580;2023-09-19T10:10:38;6.05;;;4.20;;
58436;SDS011;44230;43.626;10.580;2023-09-19T10:13:08;6.43;;;3.83;;
58436;SDS011;44230;43.626;10.580;2023-09-19T10:15:39;5.38;;;3.85;;
58436;SDS011;44230;43.626;10.580;2023-09-19T10:18:11;6.05;;;4.30;;
58436;SDS011;44230;43.626;10.580;2023-09-19T10:20:43;5.53;;;4.25;;
58436;SDS011;44230;43.626;10.580;2023-09-19T10:23:10;5.85;;;4.05;;
58436;SDS011;44230;43.626;10.580;2023-09-19T10:25:43;7.18;;;3.90;;
58436;SDS011;44230;43.626;10.580;2023-09-19T10:28:12;7.70;;;4.38;;
58436;SDS011;44230;43.626;10.580;2023-09-19T10:33:13;7.32;;;4.30;;
58436;SDS011;44230;43.626;10.580;2023-09-19T10:35:43;4.65;;;4.25;;
58436;SDS011;44230;43.626;10.580;2023-09-19T10:38:11;4.82;;;4.22;;
58436;SDS011;44230;43.626;10.580;2023-09-19T10:40:39;4.93;;;4.40;;
58436;SDS011;44230;43.626;10.580;2023-09-19T10:43:13;5.18;;;4.38;;
58436;SDS011;44230;43.626;10.580;2023-09-19T10:45:43;5.70;;;4.57;;
58436;SDS011;44230;43.626;10.580;2023-09-19T10:48:10;7.18;;;4.40;;
58436;SDS011;44230;43.626;10.580;2023-09-19T10:50:42;5.07;;;4.20;;
58436;SDS011;44230;43.626;10.580;2023-09-19T10:53:10;6.70;;;4.20;;
58436;SDS011;44230;43.626;10.580;2023-09-19T10:55:37;5.97;;;4.28;;
58436;SDS011;44230;43.626;10.580;2023-09-19T10:58:03;6.65;;;4.63;;
58436;SDS011;44230;43.626;10.580;2023-09-19T11:01:13;4.87;;;3.67;;
58436;SDS011;44230;43.626;10.580;2023-09-19T11:03:37;6.78;;;4.38;;
58436;SDS011;44230;43.626;10.580;2023-09-19T11:14:13;8.15;;;4.45;;
58436;SDS011;44230;43.626;10.580;2023-09-19T11:30:36;6.38;;;4.07;;
58436;SDS011;44230;43.626;10.580;2023-09-19T11:46:34;4.78;;;3.67;;
58436;SDS011;44230;43.626;10.580;2023-09-19T11:49:16;3.78;;;3.47;;
58436;SDS011;44230;43.626;10.580;2023-09-19T11:51:48;6.57;;;4.00;;
58436;SDS011;44230;43.626;10.580;2023-09-19T11:54:16;4.53;;;3.72;;
58436;SDS011;44230;43.626;10.580;2023-09-19T11:56:53;4.95;;;4.13;;
58436;SDS011;44230;43.626;10.580;2023-09-19T11:59:23;5.35;;;3.17;;
58436;SDS011;44230;43.626;10.580;2023-09-19T12:01:56;4.10;;;3.53;;
58436;SDS011;44230;43.626;10.580;2023-09-19T12:04:39;3.90;;;3.50;;
58436;SDS011;44230;43.626;10.580;2023-09-19T12:07:12;4.65;;;3.80;;
58436;SDS011;44230;43.626;10.580;2023-09-19T12:12:12;5.10;;;3.83;;
58436;SDS011;44230;43.626;10.580;2023-09-19T12:14:48;5.43;;;3.47;;
58436;SDS011;44230;43.626;10.580;2023-09-19T12:17:15;3.88;;;3.33;;
58436;SDS011;44230;43.626;10.580;2023-09-19T12:19:51;5.05;;;3.60;;
58436;SDS011;44230;43.626;10.580;2023-09-19T12:22:21;4.13;;;3.35;;
58436;SDS011;44230;43.626;10.580;2023-09-19T12:24:47;5.35;;;3.28;;
58436;SDS011;44230;43.626;10.580;2023-09-19T12:27:13;3.92;;;3.10;;
58436;SDS011;44230;43.626;10.580;2023-09-19T12:29:43;3.40;;;3.10;;
58436;SDS011;44230;43.626;10.580;2023-09-19T12:32:16;7.38;;;3.35;;
